Time;durP1;ratioP1;P1;durP2;ratioP2;P2;SDS_P1;SDS_P2;PMS_P1;PMS_P2;Temp;Humidity;BMP_temperature;BMP_pressure;BME280_temperature;BME280_humidity;BME280_pressure;Samples;Min_cycle;Max_cycle;Signal;HPM_P1;HPM_P2
2022/04/16 00:00:20;;;;;;;0.88;0.88;;;11.30;90.30;;;;;;5054884;28;20021;-73
2022/04/16 00:02:46;;;;;;;0.20;0.20;;;11.40;90.90;;;;;;5037221;28;20380;-74
2022/04/16 00:05:12;;;;;;;0.20;0.20;;;11.50;90.70;;;;;;5054779;28;20024;-73
2022/04/16 00:07:38;;;;;;;0.20;0.20;;;11.80;90.70;;;;;;5036799;28;20041;-72
2022/04/16 00:10:05;;;;;;;0.15;0.15;;;12.10;90.00;;;;;;5054122;28;20025;-72
2022/04/16 00:12:30;;;;;;;0.20;0.20;;;11.90;89.40;;;;;;5054995;28;20159;-74
2022/04/16 00:14:57;;;;;;;0.10;0.10;;;11.70;89.50;;;;;;5036885;28;20100;-74
2022/04/16 00:17:23;;;;;;;0.20;0.20;;;11.90;90.20;;;;;;5036632;28;20393;-74
2022/04/16 00:19:48;;;;;;;0.40;0.40;;;11.70;90.20;;;;;;5036713;28;20032;-74
2022/04/16 00:22:14;;;;;;;0.80;0.75;;;11.50;90.20;;;;;;5036752;28;20090;-74
2022/04/16 00:24:43;;;;;;;0.20;0.20;;;11.40;90.60;;;;;;5054589;28;20059;-74
2022/04/16 00:27:12;;;;;;;0.65;0.65;;;11.50;91.20;;;;;;5054270;28;20032;-74
2022/04/16 00:29:38;;;;;;;0.40;0.40;;;11.40;90.30;;;;;;5054430;28;20033;-74
2022/04/16 00:32:07;;;;;;;0.32;0.32;;;11.40;91.00;;;;;;5054474;28;20021;-74
2022/04/16 00:34:34;;;;;;;0.20;0.20;;;11.20;90.90;;;;;;5054398;28;20388;-74
2022/04/16 00:37:00;;;;;;;0.50;0.50;;;11.20;91.80;;;;;;5054127;28;20025;-74
2022/04/16 00:39:27;;;;;;;0.20;0.20;;;11.20;91.00;;;;;;5054312;28;20028;-74
2022/04/16 00:41:53;;;;;;;0.20;0.20;;;11.30;91.10;;;;;;5036463;28;20374;-73
2022/04/16 00:44:20;;;;;;;1.02;1.02;;;11.40;91.40;;;;;;5054179;28;20028;-74
2022/04/16 00:46:50;;;;;;;0.25;0.25;;;11.10;90.80;;;;;;5053871;28;20528;-73
2022/04/16 00:49:15;;;;;;;0.30;0.30;;;10.70;91.80;;;;;;5054413;28;20025;-73
2022/04/16 00:51:46;;;;;;;1.35;0.50;;;10.70;92.20;;;;;;5036168;28;20083;-73
2022/04/16 00:54:12;;;;;;;0.73;0.73;;;10.60;92.50;;;;;;5036081;28;20021;-74
2022/04/16 00:56:38;;;;;;;0.32;0.32;;;10.60;91.90;;;;;;5053606;28;20037;-74
2022/04/16 00:59:04;;;;;;;0.20;0.20;;;10.60;92.40;;;;;;5053910;28;20064;-74
2022/04/16 01:01:31;;;;;;;0.25;0.25;;;10.50;92.20;;;;;;5054185;28;20049;-74
2022/04/16 01:03:57;;;;;;;0.85;0.82;;;10.70;92.20;;;;;;5035995;28;20092;-74
2022/04/16 01:06:23;;;;;;;0.20;0.20;;;10.50;91.80;;;;;;5053558;28;20107;-74
2022/04/16 01:08:49;;;;;;;0.20;0.20;;;10.60;92.20;;;;;;5053731;28;20556;-74
2022/04/16 01:11:15;;;;;;;0.20;0.20;;;10.60;91.80;;;;;;5035588;28;20043;-74
2022/04/16 01:13:46;;;;;;;1.00;0.93;;;10.70;91.70;;;;;;5053616;28;20036;-74
2022/04/16 01:16:11;;;;;;;0.20;0.20;;;10.70;91.30;;;;;;5053550;28;20048;-74
2022/04/16 01:18:46;;;;;;;0.20;0.20;;;10.70;91.70;;;;;;5053552;28;20029;-74
2022/04/16 01:21:13;;;;;;;0.28;0.28;;;10.60;91.80;;;;;;5052903;28;20391;-74
2022/04/16 01:23:39;;;;;;;0.20;0.20;;;10.60;92.10;;;;;;5053312;28;20473;-74
2022/04/16 01:26:06;;;;;;;0.20;0.20;;;10.90;92.10;;;;;;5053141;28;20519;-74
2022/04/16 01:28:32;;;;;;;0.20;0.20;;;11.00;91.80;;;;;;5053301;28;20366;-73
2022/04/16 01:30:58;;;;;;;0.20;0.20;;;11.00;91.50;;;;;;5053341;28;20020;-73
2022/04/16 01:33:24;;;;;;;0.20;0.20;;;10.90;91.60;;;;;;5053274;28;20021;-74
2022/04/16 01:35:56;;;;;;;0.30;0.30;;;10.70;92.10;;;;;;5053054;28;20488;-74
2022/04/16 01:38:25;;;;;;;0.20;0.20;;;10.70;92.20;;;;;;5053227;28;20496;-74
2022/04/16 01:40:57;;;;;;;0.25;0.25;;;10.60;92.00;;;;;;5035185;28;20029;-74
2022/04/16 01:43:23;;;;;;;0.50;0.50;;;10.40;92.40;;;;;;5053073;28;20049;-73
2022/04/16 01:45:49;;;;;;;2.20;1.27;;;10.40;91.80;;;;;;5052868;28;20056;-73
2022/04/16 01:48:19;;;;;;;0.30;0.30;;;10.20;92.60;;;;;;5035112;28;20021;-74
2022/04/16 01:50:48;;;;;;;1.35;1.00;;;10.40;93.00;;;;;;5035078;28;20485;-73
2022/04/16 01:53:15;;;;;;;0.20;0.20;;;10.50;92.40;;;;;;5052886;28;20047;-74
2022/04/16 01:55:40;;;;;;;2.72;1.45;;;10.50;93.00;;;;;;5052568;28;20078;-74
2022/04/16 01:58:06;;;;;;;0.50;0.50;;;10.70;91.80;;;;;;5052846;28;20120;-74
2022/04/16 02:00:33;;;;;;;0.25;0.25;;;10.40;92.20;;;;;;5052726;28;20091;-74
2022/04/16 02:02:59;;;;;;;0.10;0.10;;;10.40;92.50;;;;;;5052729;28;20013;-73
2022/04/16 02:05:26;;;;;;;0.20;0.20;;;10.40;93.00;;;;;;5052415;28;20429;-74
2022/04/16 02:07:51;;;;;;;0.17;0.17;;;10.60;92.70;;;;;;5034854;28;20053;-74
2022/04/16 02:10:18;;;;;;;0.30;0.30;;;10.40;91.80;;;;;;5052484;28;20063;-74
2022/04/16 02:12:44;;;;;;;0.30;0.30;;;10.10;92.10;;;;;;5052467;28;20021;-74
2022/04/16 02:15:10;;;;;;;0.20;0.20;;;10.20;92.60;;;;;;5034711;28;20096;-73
2022/04/16 02:17:38;;;;;;;0.20;0.20;;;10.40;92.60;;;;;;5052409;28;20040;-74
2022/04/16 02:20:08;;;;;;;0.10;0.10;;;10.40;92.50;;;;;;5034588;28;20032;-73
2022/04/16 02:22:45;;;;;;;0.20;0.20;;;10.50;92.00;;;;;;5052342;28;20025;-74
2022/04/16 02:25:13;;;;;;;0.20;0.20;;;10.40;92.40;;;;;;5052201;28;20032;-74
2022/04/16 02:27:39;;;;;;;0.20;0.20;;;10.40;92.20;;;;;;5052107;28;20029;-74
2022/04/16 02:30:08;;;;;;;0.63;0.63;;;10.40;92.40;;;;;;5018007;28;20392;-72
2022/04/16 02:32:43;;;;;;;0.20;0.20;;;10.10;92.50;;;;;;5034138;28;20082;-73
2022/04/16 02:35:11;;;;;;;0.20;0.20;;;9.90;93.50;;;;;;5034239;28;20029;-74
2022/04/16 02:37:37;;;;;;;0.20;0.20;;;10.00;93.20;;;;;;5052088;28;20025;-74
2022/04/16 02:40:04;;;;;;;0.30;0.30;;;10.00;93.00;;;;;;5052123;28;20495;-74
2022/04/16 02:42:33;;;;;;;0.20;0.20;;;10.00;94.00;;;;;;5052078;28;20028;-72
2022/04/16 02:47:43;;;;;;;0.50;0.50;;;10.00;92.80;;;;;;5051969;28;20025;-73
2022/04/16 02:50:09;;;;;;;0.43;0.43;;;9.80;93.60;;;;;;5052058;28;20495;-74
2022/04/16 02:52:36;;;;;;;0.73;0.70;;;9.70;93.50;;;;;;5034148;28;20032;-74
2022/04/16 02:55:03;;;;;;;0.20;0.20;;;9.70;93.70;;;;;;5034015;28;20025;-74
2022/04/16 02:57:31;;;;;;;0.20;0.20;;;9.90;93.30;;;;;;5051685;28;20400;-74
2022/04/16 02:59:57;;;;;;;0.40;0.40;;;9.80;93.00;;;;;;5051942;28;20102;-74
2022/04/16 03:02:23;;;;;;;0.20;0.20;;;9.70;93.80;;;;;;5034367;28;20029;-73
2022/04/16 03:04:50;;;;;;;0.20;0.20;;;9.70;93.10;;;;;;5051827;28;20018;-73
2022/04/16 03:07:17;;;;;;;0.20;0.20;;;9.60;93.40;;;;;;5033812;28;20428;-74
2022/04/16 03:09:43;;;;;;;0.20;0.20;;;9.60;93.50;;;;;;5051743;28;20087;-74
2022/04/16 03:12:09;;;;;;;0.20;0.20;;;9.60;93.60;;;;;;5051771;28;20025;-73
2022/04/16 03:17:32;;;;;;;0.20;0.20;;;9.70;93.00;;;;;;5028244;28;20109;-73
2022/04/16 03:20:07;;;;;;;0.17;0.17;;;9.50;93.80;;;;;;5033860;28;20443;-74
2022/04/16 03:22:33;;;;;;;0.25;0.25;;;9.50;93.80;;;;;;5051697;28;20013;-74
2022/04/16 03:25:07;;;;;;;0.25;0.25;;;9.50;94.40;;;;;;5033864;28;20025;-73
2022/04/16 03:27:33;;;;;;;0.40;0.40;;;9.60;93.80;;;;;;5051488;28;20021;-74
2022/04/16 03:29:59;;;;;;;0.30;0.30;;;9.70;93.30;;;;;;5051672;28;20022;-74
2022/04/16 03:32:24;;;;;;;0.30;0.30;;;9.70;94.30;;;;;;5051634;28;20114;-74
2022/04/16 03:34:50;;;;;;;0.20;0.20;;;9.90;93.60;;;;;;5033740;28;20031;-74
2022/04/16 03:37:16;;;;;;;0.32;0.32;;;9.80;93.30;;;;;;5051451;28;20108;-73
2022/04/16 03:39:43;;;;;;;0.40;0.40;;;9.60;93.80;;;;;;5033713;28;20021;-73
2022/04/16 03:42:10;;;;;;;0.30;0.30;;;9.50;93.90;;;;;;5051491;28;20079;-74
2022/04/16 03:44:37;;;;;;;0.20;0.20;;;9.60;94.20;;;;;;5051491;28;20431;-74
2022/04/16 03:47:04;;;;;;;0.20;0.20;;;9.70;94.10;;;;;;5020617;28;20056;-74
2022/04/16 03:49:30;;;;;;;0.30;0.30;;;9.90;93.40;;;;;;5037321;28;20029;-74
2022/04/16 03:51:55;;;;;;;0.20;0.20;;;9.40;93.60;;;;;;5055151;28;20365;-73
2022/04/16 04:00:05;;;;;;;0.20;0.20;;;9.40;94.90;;;;;;5055027;28;20078;-73
2022/04/16 04:02:39;;;;;;;0.30;0.30;;;9.20;94.90;;;;;;5055000;28;20021;-74
2022/04/16 04:05:06;;;;;;;0.20;0.20;;;9.20;95.70;;;;;;5037094;28;20638;-73
2022/04/16 04:07:33;;;;;;;0.25;0.25;;;9.30;95.00;;;;;;5054641;28;20090;-73
2022/04/16 04:09:59;;;;;;;1.45;0.88;;;9.40;95.00;;;;;;5036945;28;20074;-74
2022/04/16 04:12:25;;;;;;;0.20;0.20;;;9.50;94.80;;;;;;5037046;28;20021;-74
2022/04/16 04:14:51;;;;;;;0.20;0.20;;;9.50;94.00;;;;;;5036941;28;20025;-73
2022/04/16 04:17:17;;;;;;;0.20;0.20;;;9.30;95.00;;;;;;5036680;28;20037;-74
2022/04/16 04:19:45;;;;;;;0.20;0.20;;;9.40;94.70;;;;;;5037080;28;20032;-73
2022/04/16 04:22:15;;;;;;;0.30;0.30;;;9.50;95.20;;;;;;5054609;28;20029;-74
2022/04/16 04:24:41;;;;;;;0.98;0.80;;;9.40;95.20;;;;;;5036682;28;20393;-74
2022/04/16 04:27:07;;;;;;;0.20;0.20;;;9.60;95.00;;;;;;5036308;28;20029;-74
2022/04/16 04:29:34;;;;;;;0.25;0.25;;;9.50;94.60;;;;;;5054522;28;20469;-74
2022/04/16 04:32:00;;;;;;;0.50;0.50;;;9.50;95.30;;;;;;5036566;28;20025;-73
2022/04/16 04:34:26;;;;;;;1.20;0.85;;;9.50;94.50;;;;;;5036489;28;20028;-74
2022/04/16 04:36:52;;;;;;;0.40;0.40;;;9.10;95.00;;;;;;5053971;28;20404;-74
2022/04/16 04:39:18;;;;;;;0.20;0.20;;;9.10;95.90;;;;;;5036929;28;20060;-74
2022/04/16 04:41:44;;;;;;;0.20;0.20;;;9.20;96.60;;;;;;5050385;28;20025;-74
2022/04/16 04:44:14;;;;;;;0.30;0.30;;;9.40;96.40;;;;;;5054212;28;20028;-74
2022/04/16 04:46:40;;;;;;;0.20;0.20;;;9.40;95.30;;;;;;5036166;28;20057;-73
2022/04/16 04:49:07;;;;;;;0.30;0.30;;;9.30;95.80;;;;;;5054062;28;20017;-74
2022/04/16 04:51:38;;;;;;;0.25;0.25;;;9.30;96.00;;;;;;5036212;28;20056;-74
2022/04/16 04:54:04;;;;;;;1.52;1.42;;;9.30;96.00;;;;;;5036148;28;20018;-74
2022/04/16 04:56:30;;;;;;;0.30;0.30;;;9.00;96.30;;;;;;5096689;23;20045;-77
2022/04/16 04:58:56;;;;;;;0.20;0.20;;;8.90;97.00;;;;;;5036002;28;20025;-76
2022/04/16 05:01:22;;;;;;;1.90;0.75;;;8.90;97.30;;;;;;5035149;28;20095;-76
2022/04/16 05:03:48;;;;;;;0.22;0.22;;;9.00;97.50;;;;;;5019551;28;20113;-76
2022/04/16 05:06:13;;;;;;;0.20;0.20;;;9.20;97.50;;;;;;5018877;28;20462;-76
2022/04/16 05:08:39;;;;;;;1.33;1.33;;;9.30;96.90;;;;;;5053780;28;20098;-77
2022/04/16 05:11:05;;;;;;;0.25;0.25;;;9.50;96.60;;;;;;5037268;28;20538;-76
2022/04/16 05:13:31;;;;;;;1.35;0.90;;;9.30;96.20;;;;;;5049402;28;20025;-77
2022/04/16 05:15:56;;;;;;;0.20;0.20;;;9.20;96.90;;;;;;5035394;28;20484;-77
2022/04/16 05:18:22;;;;;;;1.58;1.20;;;9.30;97.70;;;;;;5035704;28;20052;-76
2022/04/16 05:20:48;;;;;;;3.05;1.17;;;9.40;96.90;;;;;;5053583;28;20032;-77
2022/04/16 05:23:14;;;;;;;0.70;0.70;;;9.50;97.50;;;;;;5053489;28;20063;-77
2022/04/16 05:25:39;;;;;;;0.20;0.20;;;9.10;97.30;;;;;;5019155;28;20025;-80
2022/04/16 05:28:05;;;;;;;0.20;0.20;;;9.20;98.20;;;;;;5053863;28;20639;-76
2022/04/16 05:30:38;;;;;;;0.20;0.20;;;9.30;98.40;;;;;;5053521;28;20423;-76
2022/04/16 05:33:16;;;;;;;0.20;0.20;;;9.30;97.80;;;;;;5019217;28;20017;-75
2022/04/16 05:35:43;;;;;;;1.95;1.85;;;9.20;98.00;;;;;;5018854;28;20449;-76
2022/04/16 05:38:08;;;;;;;0.30;0.30;;;8.90;99.10;;;;;;5035438;28;20025;-76
2022/04/16 05:40:34;;;;;;;0.75;0.75;;;8.80;99.90;;;;;;5052964;28;20082;-76
2022/04/16 05:43:00;;;;;;;0.30;0.30;;;8.60;99.90;;;;;;5035233;28;20021;-76
2022/04/16 05:45:25;;;;;;;0.20;0.20;;;8.70;99.90;;;;;;5053010;28;20017;-77
2022/04/16 05:47:51;;;;;;;0.20;0.20;;;8.80;99.90;;;;;;5052846;28;20025;-76
2022/04/16 05:50:17;;;;;;;0.20;0.20;;;8.80;99.90;;;;;;5053003;28;20017;-76
2022/04/16 05:52:43;;;;;;;1.35;0.68;;;9.00;99.90;;;;;;5018707;28;20025;-76
2022/04/16 05:55:10;;;;;;;0.55;0.55;;;9.20;99.90;;;;;;5053027;28;20053;-76
2022/04/16 05:57:37;;;;;;;0.20;0.20;;;9.20;99.90;;;;;;5052686;28;20093;-76
2022/04/16 06:00:04;;;;;;;1.05;1.02;;;9.00;99.90;;;;;;5035066;28;20499;-76
2022/04/16 06:02:31;;;;;;;0.30;0.30;;;8.90;99.90;;;;;;5052820;28;20021;-76
2022/04/16 06:04:57;;;;;;;0.20;0.20;;;9.00;99.90;;;;;;5052784;28;20122;-76
2022/04/16 06:07:23;;;;;;;0.68;0.68;;;9.10;99.90;;;;;;5052074;28;20068;-76
2022/04/16 06:09:48;;;;;;;0.40;0.40;;;9.00;99.90;;;;;;5052616;28;20048;-76
2022/04/16 06:12:14;;;;;;;0.30;0.30;;;9.00;99.90;;;;;;5052560;28;20017;-76
2022/04/16 06:14:40;;;;;;;1.52;1.08;;;8.80;99.90;;;;;;5034761;28;20025;-76
2022/04/16 06:17:06;;;;;;;0.63;0.63;;;8.60;99.90;;;;;;5052123;28;20056;-76
2022/04/16 06:19:31;;;;;;;0.20;0.20;;;8.70;99.90;;;;;;5034784;28;20083;-76
2022/04/16 06:21:57;;;;;;;0.45;0.45;;;8.90;99.90;;;;;;5018103;28;20314;-76
2022/04/16 06:24:23;;;;;;;1.98;1.67;;;9.00;99.90;;;;;;5052810;28;20032;-75
2022/04/16 06:26:49;;;;;;;0.20;0.20;;;9.00;99.90;;;;;;5034301;28;20029;-76
2022/04/16 06:29:15;;;;;;;0.30;0.30;;;9.10;99.90;;;;;;5034654;28;20438;-76
2022/04/16 06:31:41;;;;;;;1.55;1.35;;;9.00;99.90;;;;;;5034606;28;20040;-76
2022/04/16 06:34:06;;;;;;;0.20;0.20;;;9.00;99.90;;;;;;5052740;28;20028;-76
2022/04/16 06:36:32;;;;;;;2.10;1.88;;;9.10;99.90;;;;;;5052101;28;20024;-76
2022/04/16 06:38:58;;;;;;;1.02;0.82;;;9.10;99.90;;;;;;5052375;28;20070;-76
2022/04/16 06:41:23;;;;;;;0.50;0.50;;;9.10;99.90;;;;;;5034322;28;20021;-76
2022/04/16 06:43:49;;;;;;;1.35;1.13;;;9.10;99.90;;;;;;5052169;28;20036;-76
2022/04/16 06:46:15;;;;;;;2.22;2.13;;;9.20;99.90;;;;;;5033892;28;20025;-76
2022/04/16 06:48:41;;;;;;;1.35;1.15;;;9.40;99.90;;;;;;5034315;28;20025;-76
2022/04/16 06:51:07;;;;;;;0.40;0.40;;;9.30;99.90;;;;;;5052067;28;20449;-76
2022/04/16 06:53:33;;;;;;;0.20;0.20;;;9.40;99.90;;;;;;5051943;28;20052;-76
2022/04/16 06:56:00;;;;;;;0.20;0.20;;;9.60;99.90;;;;;;5017362;28;20033;-76
2022/04/16 06:58:28;;;;;;;0.20;0.20;;;9.70;99.90;;;;;;5034369;28;20021;-76
2022/04/16 07:00:56;;;;;;;0.35;0.35;;;10.00;99.90;;;;;;5034172;28;20055;-76
2022/04/16 07:03:21;;;;;;;0.30;0.30;;;9.90;99.90;;;;;;5034031;28;20391;-76
2022/04/16 07:05:47;;;;;;;0.20;0.20;;;9.90;99.90;;;;;;5034593;28;20104;-76
2022/04/16 07:08:13;;;;;;;0.20;0.20;;;9.90;99.90;;;;;;5035153;28;20074;-75
2022/04/16 07:10:39;;;;;;;0.82;0.82;;;9.90;99.90;;;;;;5052012;28;20017;-76
2022/04/16 07:13:05;;;;;;;1.02;1.02;;;10.10;99.90;;;;;;5051831;28;20017;-76
2022/04/16 07:15:33;;;;;;;0.57;0.57;;;10.00;99.90;;;;;;5051648;28;20515;-76
2022/04/16 07:17:59;;;;;;;0.20;0.20;;;10.20;99.90;;;;;;5034157;28;20099;-76
2022/04/16 07:20:25;;;;;;;1.05;1.05;;;10.00;99.90;;;;;;5053414;28;20104;-74
2022/04/16 07:22:50;;;;;;;4.00;1.58;;;9.90;99.90;;;;;;5056086;28;20515;-74
2022/04/16 07:25:16;;;;;;;0.75;0.75;;;9.80;99.90;;;;;;5039002;28;20491;-74
2022/04/16 07:27:43;;;;;;;0.30;0.30;;;9.80;99.90;;;;;;5038575;28;20087;-74
2022/04/16 07:30:10;;;;;;;0.32;0.32;;;9.90;99.90;;;;;;5039005;28;20535;-74
2022/04/16 07:32:36;;;;;;;0.30;0.30;;;10.00;99.90;;;;;;5056804;28;20402;-73
2022/04/16 07:35:02;;;;;;;0.20;0.20;;;10.00;99.90;;;;;;5057048;28;20025;-74
2022/04/16 07:37:27;;;;;;;0.10;0.10;;;10.30;99.90;;;;;;5056834;28;20067;-74
2022/04/16 07:39:53;;;;;;;0.20;0.20;;;10.40;99.90;;;;;;5056936;28;20080;-74
2022/04/16 07:42:19;;;;;;;0.60;0.60;;;10.60;99.90;;;;;;5057261;28;20036;-74
2022/04/16 07:44:44;;;;;;;0.20;0.20;;;10.80;99.90;;;;;;5039566;28;20028;-74
2022/04/16 07:47:10;;;;;;;0.50;0.50;;;10.90;99.90;;;;;;5022153;28;20064;-74
2022/04/16 07:49:36;;;;;;;1.52;1.50;;;10.80;99.90;;;;;;5057481;28;20040;-74
2022/04/16 07:52:02;;;;;;;0.20;0.20;;;10.80;99.90;;;;;;5056703;28;20432;-74
2022/04/16 07:54:27;;;;;;;0.32;0.32;;;10.60;99.90;;;;;;5056886;28;20029;-74
2022/04/16 07:56:53;;;;;;;0.60;0.60;;;10.60;99.90;;;;;;5056443;28;20033;-74
2022/04/16 07:59:19;;;;;;;0.55;0.55;;;10.50;99.90;;;;;;5058046;28;20021;-74
2022/04/16 08:01:44;;;;;;;0.20;0.20;;;10.60;99.90;;;;;;5056460;28;20092;-74
2022/04/16 08:04:10;;;;;;;0.20;0.20;;;10.80;99.90;;;;;;5056379;28;20047;-74
2022/04/16 08:06:36;;;;;;;2.83;0.73;;;10.90;99.90;;;;;;5021552;28;20501;-74
2022/04/16 08:09:03;;;;;;;0.20;0.20;;;10.70;99.90;;;;;;5021897;28;20473;-74
2022/04/16 08:11:30;;;;;;;0.75;0.75;;;10.90;99.90;;;;;;5039126;28;20021;-74
2022/04/16 08:13:57;;;;;;;2.92;2.17;;;11.10;99.50;;;;;;5057025;28;20025;-74
2022/04/16 08:16:22;;;;;;;0.65;0.65;;;11.30;98.90;;;;;;5056452;28;20048;-74
2022/04/16 08:18:48;;;;;;;3.05;2.00;;;11.40;97.40;;;;;;5056296;28;20036;-74
2022/04/16 08:21:14;;;;;;;0.20;0.20;;;11.00;96.80;;;;;;5056045;28;20025;-74
2022/04/16 08:23:54;;;;;;;0.20;0.20;;;10.90;96.80;;;;;;5056260;28;20487;-74
2022/04/16 08:26:20;;;;;;;0.63;0.63;;;10.80;94.60;;;;;;5056050;28;20033;-74
2022/04/16 08:28:46;;;;;;;0.43;0.43;;;10.90;96.60;;;;;;5056720;28;20021;-74
2022/04/16 08:31:12;;;;;;;0.28;0.28;;;10.90;96.00;;;;;;5037976;28;20025;-74
2022/04/16 08:33:38;;;;;;;0.30;0.30;;;11.10;96.60;;;;;;5038349;28;20499;-74
2022/04/16 08:36:03;;;;;;;0.77;0.77;;;11.20;95.60;;;;;;5056421;28;20032;-74
2022/04/16 08:38:29;;;;;;;0.45;0.45;;;11.00;94.60;;;;;;5055803;28;20114;-73
2022/04/16 08:40:56;;;;;;;0.22;0.22;;;10.70;95.50;;;;;;5055398;28;20384;-73
2022/04/16 08:43:22;;;;;;;1.65;1.15;;;10.70;96.00;;;;;;5055911;28;20086;-73
2022/04/16 08:45:50;;;;;;;0.20;0.20;;;10.70;95.70;;;;;;5055612;28;20061;-72
2022/04/16 08:48:16;;;;;;;0.40;0.40;;;10.80;95.80;;;;;;5038183;28;20017;-72
2022/04/16 08:50:44;;;;;;;0.30;0.30;;;10.80;95.10;;;;;;5055858;28;20105;-72
2022/04/16 08:53:10;;;;;;;0.28;0.28;;;10.70;95.50;;;;;;5055996;28;20108;-72
2022/04/16 08:55:37;;;;;;;0.30;0.30;;;10.70;95.70;;;;;;5037816;28;20053;-72
2022/04/16 08:58:03;;;;;;;1.65;0.75;;;10.60;95.80;;;;;;5037757;28;20516;-74
2022/04/16 09:00:29;;;;;;;0.20;0.20;;;10.50;96.70;;;;;;5037924;28;20024;-72
2022/04/16 09:02:57;;;;;;;0.57;0.57;;;10.60;97.10;;;;;;5037583;28;20473;-72
2022/04/16 09:05:26;;;;;;;0.20;0.20;;;10.30;97.80;;;;;;5037117;28;20451;-72
2022/04/16 09:07:56;;;;;;;0.20;0.20;;;10.30;98.70;;;;;;5054999;28;20666;-72
2022/04/16 09:10:26;;;;;;;0.47;0.43;;;10.50;98.60;;;;;;5037338;28;20021;-73
2022/04/16 09:12:54;;;;;;;0.20;0.20;;;10.60;97.90;;;;;;5037019;28;20396;-72
2022/04/16 09:15:22;;;;;;;0.30;0.30;;;10.40;99.50;;;;;;5036850;28;20025;-72
2022/04/16 09:17:59;;;;;;;1.40;1.30;;;10.10;99.90;;;;;;5036519;28;20036;-72
2022/04/16 09:20:31;;;;;;;0.30;0.30;;;9.90;99.90;;;;;;5036860;28;20025;-72
2022/04/16 09:22:56;;;;;;;2.58;2.47;;;10.10;99.90;;;;;;5020528;28;20092;-72
2022/04/16 09:25:22;;;;;;;0.20;0.20;;;10.30;99.90;;;;;;5054615;28;20104;-72
2022/04/16 09:27:50;;;;;;;1.90;1.42;;;10.30;99.90;;;;;;5036970;28;20032;-72
2022/04/16 09:30:31;;;;;;;0.20;0.20;;;10.40;99.70;;;;;;5054499;28;20029;-72
2022/04/16 09:32:58;;;;;;;0.20;0.20;;;10.40;99.80;;;;;;5055085;28;20384;-72
2022/04/16 09:35:33;;;;;;;1.67;1.05;;;10.40;97.80;;;;;;5054575;28;20028;-72
2022/04/16 09:38:00;;;;;;;0.10;0.10;;;10.30;97.50;;;;;;5037375;28;20029;-72
2022/04/16 09:40:31;;;;;;;0.20;0.20;;;10.30;98.20;;;;;;5019793;28;20028;-74
2022/04/16 09:43:04;;;;;;;0.30;0.30;;;10.30;97.40;;;;;;5035703;28;20025;-73
2022/04/16 09:45:31;;;;;;;0.30;0.30;;;10.20;97.00;;;;;;5054124;28;20075;-74
2022/04/16 09:47:58;;;;;;;1.83;1.67;;;10.10;97.60;;;;;;5053754;28;20033;-73
2022/04/16 09:50:25;;;;;;;0.20;0.20;;;10.00;97.60;;;;;;5053701;28;20468;-74
2022/04/16 09:53:00;;;;;;;0.43;0.43;;;10.00;98.90;;;;;;5053830;28;20036;-74
2022/04/16 09:55:27;;;;;;;0.20;0.20;;;10.20;98.00;;;;;;5036095;28;20029;-74
2022/04/16 09:58:04;;;;;;;3.97;3.05;;;10.30;97.70;;;;;;5053762;28;20071;-74
2022/04/16 10:00:35;;;;;;;0.20;0.20;;;10.20;97.60;;;;;;5053774;28;20036;-73
2022/04/16 10:03:06;;;;;;;0.35;0.35;;;10.10;98.70;;;;;;5054196;28;20054;-74
2022/04/16 10:05:32;;;;;;;0.28;0.28;;;10.30;98.20;;;;;;5036354;28;20130;-74
2022/04/16 10:07:59;;;;;;;0.52;0.52;;;10.30;98.10;;;;;;5053897;28;20471;-74
2022/04/16 10:10:31;;;;;;;0.52;0.52;;;10.40;98.40;;;;;;5054526;28;20089;-74
2022/04/16 10:13:01;;;;;;;;;;;10.50;98.20;;;;;;5020005;28;20017;-74
2022/04/16 10:15:57;;;;;;;0.45;0.45;;;10.50;97.80;;;;;;5053546;28;19935;-76
2022/04/16 10:18:24;;;;;;;0.20;0.20;;;10.40;98.10;;;;;;5053118;28;20029;-76
2022/04/16 10:20:54;;;;;;;1.00;1.00;;;10.10;98.70;;;;;;5034748;28;20021;-76
2022/04/16 10:23:39;;;;;;;0.80;0.80;;;10.10;99.20;;;;;;5052327;28;20059;-76
2022/04/16 10:26:10;;;;;;;0.85;0.85;;;10.30;99.60;;;;;;5017940;28;20147;-76
2022/04/16 10:28:43;;;;;;;0.20;0.20;;;10.40;99.20;;;;;;5034964;28;20247;-76
2022/04/16 10:31:29;;;;;;;0.30;0.30;;;10.40;99.40;;;;;;5034922;28;20022;-76
2022/04/16 10:33:59;;;;;;;0.20;0.20;;;10.60;98.60;;;;;;5034638;28;20024;-76
2022/04/16 10:36:36;;;;;;;0.32;0.32;;;10.70;97.30;;;;;;5034210;28;20021;-76
2022/04/16 10:39:18;;;;;;;0.35;0.35;;;10.50;98.00;;;;;;5034768;28;20028;-76
2022/04/16 10:41:56;;;;;;;0.25;0.25;;;10.60;97.60;;;;;;5017815;28;20025;-76
2022/04/16 10:44:23;;;;;;;0.20;0.20;;;10.70;96.40;;;;;;5034452;28;20060;-76
2022/04/16 10:46:51;;;;;;;0.95;0.95;;;10.50;96.60;;;;;;5033998;28;20056;-76
2022/04/16 10:49:25;;;;;;;0.65;0.65;;;10.70;96.80;;;;;;5034390;28;20021;-76
2022/04/16 10:51:52;;;;;;;0.20;0.20;;;10.90;96.20;;;;;;5051979;28;20051;-76
2022/04/16 10:54:34;;;;;;;0.20;0.20;;;11.10;95.70;;;;;;5034230;28;20422;-76
2022/04/16 10:57:01;;;;;;;0.20;0.20;;;11.10;95.10;;;;;;5065002;23;20106;-75
2022/04/16 10:59:39;;;;;;;0.20;0.20;;;11.20;94.50;;;;;;5051724;28;20137;-75
2022/04/16 11:02:25;;;;;;;0.20;0.20;;;11.20;94.60;;;;;;5034122;28;20100;-75
2022/04/16 11:05:01;;;;;;;0.20;0.20;;;11.20;94.30;;;;;;5034083;28;20030;-76
2022/04/16 11:07:28;;;;;;;0.20;0.20;;;11.10;94.00;;;;;;5051420;28;20029;-75
2022/04/16 11:09:54;;;;;;;4.28;3.38;;;11.00;93.90;;;;;;5051982;28;20500;-75
2022/04/16 11:12:21;;;;;;;0.20;0.20;;;11.00;95.70;;;;;;5033953;28;20025;-75
2022/04/16 11:14:51;;;;;;;0.20;0.20;;;11.00;96.50;;;;;;5033884;28;20090;-75
2022/04/16 11:17:17;;;;;;;0.20;0.20;;;10.80;99.50;;;;;;5033657;28;20021;-75
2022/04/16 11:19:44;;;;;;;0.40;0.40;;;10.70;99.90;;;;;;5051579;28;20029;-75
2022/04/16 11:22:11;;;;;;;0.20;0.20;;;10.60;99.90;;;;;;5033844;28;20021;-75
2022/04/16 11:24:37;;;;;;;0.30;0.30;;;10.50;99.90;;;;;;5033926;28;20025;-75
2022/04/16 11:35:23;;;;;;;0.40;0.40;;;10.50;99.90;;;;;;5033509;28;20021;-75
2022/04/16 11:37:56;;;;;;;0.30;0.30;;;10.60;99.90;;;;;;5033502;28;20018;-75
2022/04/16 11:40:22;;;;;;;0.35;0.35;;;10.50;99.90;;;;;;5051333;28;20477;-75
2022/04/16 11:42:49;;;;;;;1.48;1.00;;;10.40;99.90;;;;;;5051295;28;20025;-75
2022/04/16 11:45:15;;;;;;;0.20;0.20;;;10.30;99.90;;;;;;5016915;28;20423;-75
2022/04/16 11:47:41;;;;;;;0.20;0.20;;;10.40;99.90;;;;;;5051130;28;20060;-75
2022/04/16 11:50:10;;;;;;;0.70;0.70;;;10.30;99.90;;;;;;5051284;28;20052;-75
2022/04/16 11:52:36;;;;;;;1.10;0.98;;;10.30;99.90;;;;;;5033623;28;20021;-75
2022/04/16 11:55:16;;;;;;;0.52;0.47;;;10.30;99.90;;;;;;5051317;28;20056;-75
2022/04/16 11:57:54;;;;;;;0.28;0.28;;;10.20;99.90;;;;;;5051017;28;20053;-75
2022/04/16 12:00:22;;;;;;;0.32;0.32;;;10.00;99.90;;;;;;5033427;28;20253;-75
2022/04/16 12:02:54;;;;;;;0.20;0.20;;;10.00;99.90;;;;;;5051270;28;20460;-75
2022/04/16 12:05:28;;;;;;;0.20;0.20;;;10.10;99.90;;;;;;5051149;28;20036;-75
2022/04/16 12:07:53;;;;;;;0.20;0.20;;;10.20;99.90;;;;;;5054585;28;20032;-75
2022/04/16 12:10:20;;;;;;;0.40;0.40;;;10.10;99.90;;;;;;5036971;28;20388;-75
2022/04/16 12:12:52;;;;;;;0.50;0.50;;;10.30;99.90;;;;;;5036699;28;20092;-75
2022/04/16 12:15:26;;;;;;;0.30;0.30;;;10.40;99.90;;;;;;5054927;28;20013;-75
2022/04/16 12:17:54;;;;;;;0.30;0.30;;;10.10;99.90;;;;;;5036884;28;20059;-74
2022/04/16 12:20:21;;;;;;;0.73;0.70;;;10.00;99.90;;;;;;5054591;28;20033;-74
2022/04/16 12:22:59;;;;;;;0.98;0.90;;;9.80;99.90;;;;;;5054645;28;20441;-74
2022/04/16 12:25:25;;;;;;;0.38;0.38;;;9.80;99.90;;;;;;5036503;28;20025;-76
2022/04/16 12:27:53;;;;;;;0.68;0.68;;;9.60;99.90;;;;;;5036464;28;20120;-74
2022/04/16 12:30:24;;;;;;;0.20;0.20;;;9.70;99.90;;;;;;5054608;28;20017;-75
2022/04/16 12:33:03;;;;;;;0.20;0.20;;;10.00;99.90;;;;;;5054592;28;20435;-75
2022/04/16 12:35:30;;;;;;;0.20;0.20;;;10.00;99.90;;;;;;5054277;28;20025;-75
2022/04/16 12:37:57;;;;;;;0.20;0.20;;;10.10;99.90;;;;;;5019996;28;20029;-75
2022/04/16 12:40:24;;;;;;;2.00;0.60;;;10.30;99.90;;;;;;5019808;28;20055;-75
2022/04/16 12:42:54;;;;;;;1.13;1.02;;;10.60;99.90;;;;;;5036551;28;20025;-75
2022/04/16 12:45:20;;;;;;;0.20;0.20;;;10.70;99.90;;;;;;5036287;28;20029;-75
2022/04/16 12:47:47;;;;;;;0.20;0.20;;;10.90;99.90;;;;;;5036055;28;20047;-75
2022/04/16 12:50:15;;;;;;;0.50;0.50;;;11.20;99.90;;;;;;5019923;28;20492;-75
2022/04/16 12:52:42;;;;;;;0.35;0.35;;;11.20;99.90;;;;;;5054167;28;20028;-75
2022/04/16 12:55:09;;;;;;;0.20;0.20;;;11.00;99.90;;;;;;5054000;28;20021;-75
2022/04/16 12:57:35;;;;;;;0.43;0.43;;;10.80;99.90;;;;;;5035897;28;20492;-75
2022/04/16 13:00:05;;;;;;;0.40;0.40;;;10.80;99.90;;;;;;5036341;28;20032;-75
2022/04/16 13:02:31;;;;;;;1.45;0.95;;;11.00;99.90;;;;;;5053929;28;20024;-75
2022/04/16 13:04:57;;;;;;;1.98;1.08;;;11.00;99.90;;;;;;5036321;28;20035;-75
2022/04/16 13:07:23;;;;;;;5.22;1.23;;;10.80;99.90;;;;;;5053549;28;20029;-75
2022/04/16 13:09:49;;;;;;;0.40;0.40;;;10.50;99.90;;;;;;5053742;28;20024;-75
2022/04/16 13:12:17;;;;;;;0.75;0.75;;;10.10;99.90;;;;;;5053822;28;20025;-74